Relevés horaires Matro (Suisse)


Relevés horaires à Matro - Samedi 08 Juin 2019
Heure UTC1 Température [°C] Vent [km/h] Hum. [%] Pres.4 [hPa] Visi. [Km] Nébu. [octa] Préc.5 [mm] Cond.
2m. Res. Ros. Dir.2 Vit. Moy. Raf.3
23:00 7.4 3.2 5.7 SSE 29.6 -- 33.3 89 850(0.4/3h) -- -- -- --
22:00 7.5 3.2 5.9 SSE 31.5 -- 37.0 90 850(0.9/3h) -- -- -- --
21:00 7.9 3.7 4.8 SSE 31.5 -- 44.4 81 850(1.0/3h) -- -- -- --
20:00 7.8 3.7 5.9 SSE 29.6 -- 37.0 88 850(1.0/3h) -- -- -- --
19:00 8.0 4 5.6 S 29.6 -- 35.2 85 850(0.6/3h) -- -- -- --
18:00 8.4 4.7 5.5 S 27.8 -- 37.0 82 850(0.5/3h) -- -- -- --
17:00 8.7 5 5.1 S 27.8 -- 37.0 78 850(0.1/3h) -- -- -- --
16:00 9.6 6.5 5.1 S 24.1 -- 35.2 73 850(0.1/3h) -- -- -- --
15:00 9.7 6.8 4.5 S 22.2 -- 37.0 70 850(0.1/3h) -- -- -- --
14:00 9.6 6.7 4.3 S 22.2 -- 33.3 69 850(0.4/3h) -- -- -- --
13:00 10.3 8.1 4.1 S 16.7 -- 27.8 65 850(0.4/3h) -- -- -- --
12:00 8.0 5 3.1 SSE 18.5 -- 51.9 71 850(0.8/3h) -- -- -- --
11:00 7.3 4.9 5.6 S 13.0 -- 25.9 89 850(1.2/3h) -- -- -- --
10:00 7.0 4.5 3.3 SSE 13.0 -- 31.5 77 850(1.5/3h) -- -- -- --
09:00 6.2 2.3 5.9 SSE 22.2 -- 51.9 98 850(1.5/3h) -- -- -- --
08:00 5.7 0.6 5.3 SE 35.2 -- 48.2 97 850(1.4/3h) -- -- -- --
07:00 5.7 0.6 5.6 SSE 35.2 -- 51.9 99 850(1.4/3h) -- -- -- --
06:00 5.9 0.8 5.8 SSE 35.2 -- 64.8 99 850(1.2/3h) -- -- -- --
05:00 6.0 0.8 6.0 SSE 37.0 -- 51.9 100 850(0.8/3h) -- -- -- --
04:00 6.1 1 6.1 SSE 37.0 -- 57.4 100 850(0.3/3h) -- -- -- --
03:00 5.9 0.6 5.9 SSE 38.9 -- 64.8 100 850(0.3/3h) -- -- -- --
02:00 5.9 0.2 5.9 SSE 44.4 -- 57.4 100 850(0.1/3h) -- -- -- --
01:00 6.0 0.2 5.4 SSE 46.3 -- 64.8 96 850(-0.1/3h) -- -- -- --
00:00 5.6 -0.7 5.3 SSE 53.7 -- 64.8 98 850(-0.4/3h) -- -- -- --

1 Coordinated Universal Time. Actuellement il est 00:00 locale et 22:00 UTC.

2 Le vent souffle depuis la direction indiquée vers la direction oposée.

3 Les rafales max. sont disponible 40 min après l'heure du relevé.

4 Pour les stations d'altitude (plus de 600m) le géopotentiel du niveau le plus proche de la pression obligatoire est indiqué.

5 Les stations disposant d'un diffuseur peuvent indiquer "trace". Cela signifie que des précipitations ont touchés le sol mais que la quantité est inférieure à 0.1 mm.

Copyright

Les données affichées sur cette page sont la propriété exclusive de Météo Suisse.

Récapitulatif de la journée
Température [°C] Vent [km/h] Ensoleillement4 [h] Precipitations totale5 [mm] Pression [Hpa]
Min1 Max.2 Moy.3 Max. Min Max.
4.8 10.4 0 64.8 8 h 12 min 0 850.0 850.0

1 Température minimale relevée entre 18:00 UTC la veille et 18:00 UTC le jour donné.

2 Température maximale relevée entre 06:00 UTC le jour donné et 06:00 UTC le lendemain.

3 Vent moyen de la journée basé sur les relevés horaires.

4 Ensoleillement en heures relevé entre 06:00 UTC la veille et 06:00 UTC le jour donné.

5 Précipitations totales tombées entre 06:00 UTC la jour donné et 06:00 UTC le lendemain.

Graphiques horaires